ニューヨーク/JFK の空港の天気 - METARとTAF

ジョン・F・ケネディ国際空港 ( KJFK / JFK ) - アメリカ合衆国 ニューヨーク州ニューヨーク
飛行場実況気象(Metar)
観測時間01/20 12:51 EST (01/20 17:51 UTC)
風向・風速不定 2m/s
視程10km以上
天気現象
全天の8割程度の雲 雲底高度 820m
全天の8割程度の雲 雲底高度 5180m
全天を覆う雲 雲底高度 7620m
気温7.8℃
湿度51%
気圧1015.3hPa
METARKJFK 201751Z VRB03KT 10SM BKN027 BKN170 OVC250 08/M02 A2998 RMK AO2 SLP153 CIG 025V029 T00781017 10078 20056 58016
過去の天気等 Google飛行場航空写真 Wunderground天気予報

過去48時間のMETAR

飛行場予報(TAF)
発表時間: 1/20 12:32 EST (1/20 17:32 UTC)
予報対象時間: 20日13時 EST ~ 21日19時 EST
風向・風速南南東 3m/s
視程10km以上
全天を覆う雲 雲底高度 760m
20日14時 EST から
風向・風速南東 3m/s
視程10km以上
天気現象弱い雨
全天の8割程度の雲 雲底高度 610m
全天の8割程度の雲 雲底高度 6,100m
20日17時 EST から
風向・風速南南東 3m/s
視程4,830m
天気現象弱い雨 もや
全天を覆う雲 雲底高度 460m
20日20時 EST から
風向・風速南 3m/s
20日22時 EST から
風向・風速南 2m/s
視程1,610m
天気現象弱い雨 もや
全天を覆う雲 雲底高度 240m
21日2時 EST から
風向・風速不定 2m/s
視程1,610m
天気現象もや
全天を覆う雲 雲底高度 180m
21日9時 EST から
風向・風速西南西 3m/s
視程8,050m
天気現象もや
全天の4割程度の雲 雲底高度 180m
全天の8割程度の雲 雲底高度 370m
21日13時 EST から
風向・風速西南西 4m/s
視程10km以上
全天の8割程度の雲 雲底高度 1,220m
KJFK 201732Z 2018/2124 16005KT P6SM OVC025
FM201900 14006KT 6SM -RA BKN020 BKN200
FM202200 15006KT 3SM -RA BR OVC015
FM210100 17005KT 1 1/2SM -RA BR OVC010
FM210300 18004KT 1SM -RA BR OVC008
FM210700 VRB03KT 1SM BR OVC006
FM211400 25006KT 5SM BR SCT006 BKN012
FM211800 24008KT P6SM BKN040